sensor_id;sensor_type;location;lat;lon;timestamp;pressure;altitude;pressure_sealevel;temperature;humidity
35553;BME280;21656;46.054;13.614;2023-02-21T00:01:24;101367.13;;;4.28;100.00
35553;BME280;21656;46.054;13.614;2023-02-21T00:04:08;101364.38;;;4.30;100.00
35553;BME280;21656;46.054;13.614;2023-02-21T00:06:52;101364.19;;;4.34;100.00
35553;BME280;21656;46.054;13.614;2023-02-21T00:09:37;101365.78;;;4.17;100.00
35553;BME280;21656;46.054;13.614;2023-02-21T00:12:21;101365.75;;;4.18;100.00
35553;BME280;21656;46.054;13.614;2023-02-21T00:15:05;101366.78;;;4.14;100.00
35553;BME280;21656;46.054;13.614;2023-02-21T00:17:49;101358.66;;;4.17;100.00
35553;BME280;21656;46.054;13.614;2023-02-21T00:20:33;101367.03;;;4.08;100.00
35553;BME280;21656;46.054;13.614;2023-02-21T00:23:16;101360.72;;;4.10;100.00
35553;BME280;21656;46.054;13.614;2023-02-21T00:26:00;101357.66;;;4.20;100.00
35553;BME280;21656;46.054;13.614;2023-02-21T00:28:44;101355.63;;;4.26;100.00
35553;BME280;21656;46.054;13.614;2023-02-21T00:31:28;101357.13;;;4.33;100.00
35553;BME280;21656;46.054;13.614;2023-02-21T00:34:12;101361.88;;;4.25;100.00
35553;BME280;21656;46.054;13.614;2023-02-21T00:36:56;101355.75;;;4.23;100.00
35553;BME280;21656;46.054;13.614;2023-02-21T00:39:40;101362.94;;;4.21;100.00
35553;BME280;21656;46.054;13.614;2023-02-21T00:42:24;101356.53;;;4.25;100.00
35553;BME280;21656;46.054;13.614;2023-02-21T00:45:07;101357.25;;;4.30;100.00
35553;BME280;21656;46.054;13.614;2023-02-21T00:47:52;101361.34;;;4.39;100.00
35553;BME280;21656;46.054;13.614;2023-02-21T00:50:35;101345.97;;;4.46;100.00
35553;BME280;21656;46.054;13.614;2023-02-21T00:53:22;101355.66;;;4.48;100.00
35553;BME280;21656;46.054;13.614;2023-02-21T00:56:06;101356.66;;;4.46;100.00
35553;BME280;21656;46.054;13.614;2023-02-21T00:58:50;101366.38;;;4.47;100.00
35553;BME280;21656;46.054;13.614;2023-02-21T01:01:41;101362.34;;;4.37;100.00
35553;BME280;21656;46.054;13.614;2023-02-21T01:04:27;101365.81;;;4.39;100.00
35553;BME280;21656;46.054;13.614;2023-02-21T01:07:11;101360.00;;;4.51;100.00
35553;BME280;21656;46.054;13.614;2023-02-21T01:09:55;101356.13;;;4.58;100.00
35553;BME280;21656;46.054;13.614;2023-02-21T01:12:39;101361.59;;;4.55;100.00
35553;BME280;21656;46.054;13.614;2023-02-21T01:15:23;101360.00;;;4.51;100.00
35553;BME280;21656;46.054;13.614;2023-02-21T01:18:07;101355.94;;;4.63;100.00
35553;BME280;21656;46.054;13.614;2023-02-21T01:20:51;101346.56;;;4.74;100.00
35553;BME280;21656;46.054;13.614;2023-02-21T01:23:35;101348.06;;;4.82;100.00
35553;BME280;21656;46.054;13.614;2023-02-21T01:26:19;101349.66;;;4.86;100.00
35553;BME280;21656;46.054;13.614;2023-02-21T01:29:03;101351.00;;;4.96;100.00
35553;BME280;21656;46.054;13.614;2023-02-21T01:31:47;101343.66;;;5.01;100.00
35553;BME280;21656;46.054;13.614;2023-02-21T01:34:31;101348.31;;;4.96;100.00
35553;BME280;21656;46.054;13.614;2023-02-21T01:37:15;101340.72;;;4.87;100.00
35553;BME280;21656;46.054;13.614;2023-02-21T01:39:59;101344.53;;;4.81;100.00
35553;BME280;21656;46.054;13.614;2023-02-21T01:42:43;101336.13;;;4.90;100.00
35553;BME280;21656;46.054;13.614;2023-02-21T01:48:18;101327.63;;;5.01;100.00
35553;BME280;21656;46.054;13.614;2023-02-21T01:51:04;101322.09;;;5.06;100.00
35553;BME280;21656;46.054;13.614;2023-02-21T01:53:49;101315.75;;;5.08;100.00
35553;BME280;21656;46.054;13.614;2023-02-21T01:56:33;101317.56;;;5.08;100.00
35553;BME280;21656;46.054;13.614;2023-02-21T01:59:17;101312.84;;;5.14;100.00
35553;BME280;21656;46.054;13.614;2023-02-21T02:02:04;101311.84;;;5.17;100.00
35553;BME280;21656;46.054;13.614;2023-02-21T02:04:49;101312.50;;;5.22;100.00
35553;BME280;21656;46.054;13.614;2023-02-21T02:07:33;101305.88;;;5.31;100.00
35553;BME280;21656;46.054;13.614;2023-02-21T02:10:17;101300.38;;;5.34;100.00
35553;BME280;21656;46.054;13.614;2023-02-21T02:21:17;101299.69;;;5.49;100.00
35553;BME280;21656;46.054;13.614;2023-02-21T02:24:02;101292.56;;;5.50;100.00
35553;BME280;21656;46.054;13.614;2023-02-21T02:39:39;101285.41;;;5.50;100.00
35553;BME280;21656;46.054;13.614;2023-02-21T02:42:12;101281.09;;;5.48;100.00
35553;BME280;21656;46.054;13.614;2023-02-21T02:44:40;101281.75;;;5.53;100.00
35553;BME280;21656;46.054;13.614;2023-02-21T02:47:07;101281.44;;;5.59;100.00
35553;BME280;21656;46.054;13.614;2023-02-21T02:49:35;101280.38;;;5.63;100.00
35553;BME280;21656;46.054;13.614;2023-02-21T02:52:06;101281.09;;;5.67;100.00
35553;BME280;21656;46.054;13.614;2023-02-21T02:54:31;101276.25;;;5.56;100.00
35553;BME280;21656;46.054;13.614;2023-02-21T02:56:57;101275.22;;;5.39;100.00
35553;BME280;21656;46.054;13.614;2023-02-21T02:59:24;101269.75;;;5.42;100.00
35553;BME280;21656;46.054;13.614;2023-02-21T03:14:46;101245.91;;;5.76;100.00
35553;BME280;21656;46.054;13.614;2023-02-21T03:17:14;101253.00;;;5.77;100.00
35553;BME280;21656;46.054;13.614;2023-02-21T03:19:43;101248.38;;;5.80;100.00
35553;BME280;21656;46.054;13.614;2023-02-21T03:22:12;101230.38;;;5.84;100.00
35553;BME280;21656;46.054;13.614;2023-02-21T03:24:39;101240.06;;;5.86;100.00
35553;BME280;21656;46.054;13.614;2023-02-21T03:27:06;101238.97;;;5.91;100.00
35553;BME280;21656;46.054;13.614;2023-02-21T03:29:32;101236.19;;;5.94;100.00
35553;BME280;21656;46.054;13.614;2023-02-21T03:34:42;101229.03;;;5.94;100.00
35553;BME280;21656;46.054;13.614;2023-02-21T03:37:08;101235.22;;;5.95;100.00
35553;BME280;21656;46.054;13.614;2023-02-21T03:39:34;101232.19;;;5.83;100.00
35553;BME280;21656;46.054;13.614;2023-02-21T03:41:59;101225.41;;;5.76;100.00
35553;BME280;21656;46.054;13.614;2023-02-21T03:44:25;101218.56;;;5.71;100.00
35553;BME280;21656;46.054;13.614;2023-02-21T03:46:50;101218.41;;;5.74;100.00
35553;BME280;21656;46.054;13.614;2023-02-21T03:49:15;101216.38;;;5.79;100.00
35553;BME280;21656;46.054;13.614;2023-02-21T03:51:40;101212.63;;;5.83;100.00
35553;BME280;21656;46.054;13.614;2023-02-21T03:54:06;101211.50;;;5.87;100.00
35553;BME280;21656;46.054;13.614;2023-02-21T03:56:31;101211.28;;;5.92;100.00
35553;BME280;21656;46.054;13.614;2023-02-21T03:58:56;101216.53;;;5.95;100.00
35553;BME280;21656;46.054;13.614;2023-02-21T04:01:21;101212.13;;;5.94;100.00
35553;BME280;21656;46.054;13.614;2023-02-21T04:03:47;101216.53;;;5.95;100.00
35553;BME280;21656;46.054;13.614;2023-02-21T04:06:12;101218.28;;;5.96;100.00
35553;BME280;21656;46.054;13.614;2023-02-21T04:08:37;101218.81;;;6.02;100.00
35553;BME280;21656;46.054;13.614;2023-02-21T04:11:03;101216.03;;;6.05;100.00
35553;BME280;21656;46.054;13.614;2023-02-21T04:13:28;101214.03;;;6.09;100.00
35553;BME280;21656;46.054;13.614;2023-02-21T04:15:53;101214.91;;;6.10;100.00
35553;BME280;21656;46.054;13.614;2023-02-21T04:18:18;101205.81;;;6.14;100.00
35553;BME280;21656;46.054;13.614;2023-02-21T04:20:44;101204.00;;;6.14;100.00
35553;BME280;21656;46.054;13.614;2023-02-21T04:23:11;101204.00;;;6.14;100.00
35553;BME280;21656;46.054;13.614;2023-02-21T04:25:37;101207.38;;;6.18;100.00
35553;BME280;21656;46.054;13.614;2023-02-21T04:28:02;101203.75;;;6.19;100.00
35553;BME280;21656;46.054;13.614;2023-02-21T04:30:27;101200.13;;;6.20;100.00
35553;BME280;21656;46.054;13.614;2023-02-21T04:32:53;101202.00;;;6.18;100.00
35553;BME280;21656;46.054;13.614;2023-02-21T04:35:18;101192.34;;;6.15;100.00
35553;BME280;21656;46.054;13.614;2023-02-21T04:37:43;101197.69;;;6.15;100.00
35553;BME280;21656;46.054;13.614;2023-02-21T04:40:11;101198.78;;;6.11;100.00
35553;BME280;21656;46.054;13.614;2023-02-21T04:42:37;101192.44;;;6.14;100.00
35553;BME280;21656;46.054;13.614;2023-02-21T04:45:02;101185.91;;;6.19;100.00
35553;BME280;21656;46.054;13.614;2023-02-21T04:47:27;101185.97;;;6.18;100.00
35553;BME280;21656;46.054;13.614;2023-02-21T04:49:53;101183.97;;;6.23;100.00
35553;BME280;21656;46.054;13.614;2023-02-21T04:52:18;101181.28;;;6.23;100.00
35553;BME280;21656;46.054;13.614;2023-02-21T04:54:44;101189.22;;;6.24;100.00
35553;BME280;21656;46.054;13.614;2023-02-21T04:57:10;101175.94;;;6.23;100.00
35553;BME280;21656;46.054;13.614;2023-02-21T04:59:36;101189.75;;;6.14;100.00
35553;BME280;21656;46.054;13.614;2023-02-21T05:02:01;101177.25;;;6.14;100.00
35553;BME280;21656;46.054;13.614;2023-02-21T05:04:26;101177.41;;;6.11;100.00
35553;BME280;21656;46.054;13.614;2023-02-21T05:06:52;101182.66;;;6.13;100.00
35553;BME280;21656;46.054;13.614;2023-02-21T05:09:17;101171.91;;;6.14;100.00
35553;BME280;21656;46.054;13.614;2023-02-21T05:11:42;101171.72;;;6.17;100.00
35553;BME280;21656;46.054;13.614;2023-02-21T05:14:07;101172.69;;;6.16;100.00
35553;BME280;21656;46.054;13.614;2023-02-21T05:16:33;101176.06;;;6.20;100.00
35553;BME280;21656;46.054;13.614;2023-02-21T05:18:58;101176.06;;;6.20;100.00
35553;BME280;21656;46.054;13.614;2023-02-21T05:21:23;101174.97;;;6.24;100.00
35553;BME280;21656;46.054;13.614;2023-02-21T05:23:48;101173.94;;;6.26;100.00
35553;BME280;21656;46.054;13.614;2023-02-21T05:26:20;101163.19;;;6.28;100.00
35553;BME280;21656;46.054;13.614;2023-02-21T05:28:46;101178.34;;;6.27;100.00
35553;BME280;21656;46.054;13.614;2023-02-21T05:31:11;101169.56;;;6.25;100.00
35553;BME280;21656;46.054;13.614;2023-02-21T05:33:36;101177.59;;;6.25;100.00
35553;BME280;21656;46.054;13.614;2023-02-21T05:36:01;101177.31;;;6.13;100.00
35553;BME280;21656;46.054;13.614;2023-02-21T05:38:27;101178.03;;;6.16;100.00
35553;BME280;21656;46.054;13.614;2023-02-21T05:40:52;101169.78;;;6.21;100.00
35553;BME280;21656;46.054;13.614;2023-02-21T05:43:18;101176.94;;;6.20;100.00
35553;BME280;21656;46.054;13.614;2023-02-21T05:45:43;101178.50;;;6.24;100.00
35553;BME280;21656;46.054;13.614;2023-02-21T05:48:08;101165.06;;;6.26;100.00
35553;BME280;21656;46.054;13.614;2023-02-21T05:50:34;101167.75;;;6.26;100.00
35553;BME280;21656;46.054;13.614;2023-02-21T05:52:59;101170.41;;;6.26;100.00
35553;BME280;21656;46.054;13.614;2023-02-21T05:55:24;101169.69;;;6.22;100.00
35553;BME280;21656;46.054;13.614;2023-02-21T05:57:50;101172.13;;;6.27;100.00
35553;BME280;21656;46.054;13.614;2023-02-21T06:00:19;101173.88;;;6.28;100.00
35553;BME280;21656;46.054;13.614;2023-02-21T06:02:45;101176.41;;;6.31;100.00
35553;BME280;21656;46.054;13.614;2023-02-21T06:05:11;101175.38;;;6.34;100.00
35553;BME280;21656;46.054;13.614;2023-02-21T06:07:36;101183.31;;;6.35;100.00
35553;BME280;21656;46.054;13.614;2023-02-21T06:10:02;101184.09;;;6.37;100.00
35553;BME280;21656;46.054;13.614;2023-02-21T06:12:27;101188.19;;;6.44;100.00
35553;BME280;21656;46.054;13.614;2023-02-21T06:14:52;101187.97;;;6.49;100.00
35553;BME280;21656;46.054;13.614;2023-02-21T06:17:18;101194.19;;;6.49;100.00
35553;BME280;21656;46.054;13.614;2023-02-21T06:19:43;101200.56;;;6.47;100.00
35553;BME280;21656;46.054;13.614;2023-02-21T06:22:08;101200.56;;;6.47;100.00
35553;BME280;21656;46.054;13.614;2023-02-21T06:24:34;101205.03;;;6.46;100.00
35553;BME280;21656;46.054;13.614;2023-02-21T06:26:59;101213.06;;;6.46;100.00
35553;BME280;21656;46.054;13.614;2023-02-21T06:29:24;101214.00;;;6.45;100.00
35553;BME280;21656;46.054;13.614;2023-02-21T06:31:54;101217.63;;;6.44;100.00
35553;BME280;21656;46.054;13.614;2023-02-21T06:34:20;101228.41;;;6.43;100.00
35553;BME280;21656;46.054;13.614;2023-02-21T06:36:45;101224.81;;;6.44;100.00
35553;BME280;21656;46.054;13.614;2023-02-21T06:39:10;101228.19;;;6.47;100.00
35553;BME280;21656;46.054;13.614;2023-02-21T06:41:36;101226.28;;;6.49;100.00
35553;BME280;21656;46.054;13.614;2023-02-21T06:44:01;101226.47;;;6.46;100.00
35553;BME280;21656;46.054;13.614;2023-02-21T06:46:28;101230.56;;;6.54;100.00
35553;BME280;21656;46.054;13.614;2023-02-21T06:48:53;101229.53;;;6.56;100.00
35553;BME280;21656;46.054;13.614;2023-02-21T06:51:19;101236.53;;;6.59;100.00
35553;BME280;21656;46.054;13.614;2023-02-21T06:53:47;101240.88;;;6.61;100.00
35553;BME280;21656;46.054;13.614;2023-02-21T06:56:13;101239.91;;;6.62;100.00
35553;BME280;21656;46.054;13.614;2023-02-21T06:58:38;101245.91;;;6.67;100.00
35553;BME280;21656;46.054;13.614;2023-02-21T07:01:03;101254.09;;;6.64;100.00
35553;BME280;21656;46.054;13.614;2023-02-21T07:03:29;101246.75;;;6.68;100.00
35553;BME280;21656;46.054;13.614;2023-02-21T07:05:54;101250.16;;;6.71;100.00
35553;BME280;21656;46.054;13.614;2023-02-21T07:08:19;101256.53;;;6.69;100.00
35553;BME280;21656;46.054;13.614;2023-02-21T07:10:45;101250.31;;;6.68;100.00
35553;BME280;21656;46.054;13.614;2023-02-21T07:13:10;101258.09;;;6.73;100.00
35553;BME280;21656;46.054;13.614;2023-02-21T07:15:36;101255.13;;;6.79;100.00
35553;BME280;21656;46.054;13.614;2023-02-21T07:18:01;101250.56;;;6.81;100.00
35553;BME280;21656;46.054;13.614;2023-02-21T07:20:26;101252.28;;;6.82;100.00
35553;BME280;21656;46.054;13.614;2023-02-21T07:22:52;101254.97;;;6.82;100.00
35553;BME280;21656;46.054;13.614;2023-02-21T07:25:18;101258.31;;;6.86;100.00
35553;BME280;21656;46.054;13.614;2023-02-21T07:27:45;101253.94;;;6.85;100.00
35553;BME280;21656;46.054;13.614;2023-02-21T07:30:10;101256.53;;;6.86;100.00
35553;BME280;21656;46.054;13.614;2023-02-21T07:32:36;101253.59;;;6.91;100.00
35553;BME280;21656;46.054;13.614;2023-02-21T07:35:02;101259.22;;;6.86;100.00
35553;BME280;21656;46.054;13.614;2023-02-21T07:37:27;101259.34;;;6.83;100.00
35553;BME280;21656;46.054;13.614;2023-02-21T07:39:52;101257.31;;;6.88;100.00
35553;BME280;21656;46.054;13.614;2023-02-21T07:42:17;101258.81;;;6.94;100.00
35553;BME280;21656;46.054;13.614;2023-02-21T07:44:43;101263.44;;;6.90;100.00
35553;BME280;21656;46.054;13.614;2023-02-21T07:47:08;101262.34;;;6.94;100.00
35553;BME280;21656;46.054;13.614;2023-02-21T07:49:38;101265.03;;;6.94;100.00
35553;BME280;21656;46.054;13.614;2023-02-21T07:52:03;101266.75;;;6.95;100.00
35553;BME280;21656;46.054;13.614;2023-02-21T07:54:29;101265.66;;;7.00;100.00
35553;BME280;21656;46.054;13.614;2023-02-21T07:56:54;101271.81;;;7.02;100.00
35553;BME280;21656;46.054;13.614;2023-02-21T07:59:19;101272.50;;;7.05;100.00
35553;BME280;21656;46.054;13.614;2023-02-21T08:01:45;101283.16;;;7.07;100.00
35553;BME280;21656;46.054;13.614;2023-02-21T08:04:11;101278.66;;;7.07;100.00
35553;BME280;21656;46.054;13.614;2023-02-21T08:06:37;101272.25;;;7.10;100.00
35553;BME280;21656;46.054;13.614;2023-02-21T08:09:03;101269.41;;;7.13;100.00
35553;BME280;21656;46.054;13.614;2023-02-21T08:11:28;101270.22;;;7.15;100.00
35553;BME280;21656;46.054;13.614;2023-02-21T08:13:54;101263.81;;;7.18;100.00
35553;BME280;21656;46.054;13.614;2023-02-21T08:16:19;101269.47;;;7.29;100.00
35553;BME280;21656;46.054;13.614;2023-02-21T08:18:47;101265.91;;;7.28;100.00
35553;BME280;21656;46.054;13.614;2023-02-21T08:21:14;101256.44;;;7.38;100.00
35553;BME280;21656;46.054;13.614;2023-02-21T08:23:40;101261.94;;;7.53;100.00
35553;BME280;21656;46.054;13.614;2023-02-21T08:26:05;101261.41;;;7.62;100.00
35553;BME280;21656;46.054;13.614;2023-02-21T08:28:30;101262.66;;;7.72;100.00
35553;BME280;21656;46.054;13.614;2023-02-21T08:30:56;101259.25;;;7.53;100.00
35553;BME280;21656;46.054;13.614;2023-02-21T08:33:21;101263.69;;;7.36;100.00
35553;BME280;21656;46.054;13.614;2023-02-21T08:35:47;101248.75;;;7.32;100.00
35553;BME280;21656;46.054;13.614;2023-02-21T08:38:12;101253.94;;;7.35;100.00
35553;BME280;21656;46.054;13.614;2023-02-21T08:40:37;101257.84;;;7.46;100.00
35553;BME280;21656;46.054;13.614;2023-02-21T08:43:03;101257.19;;;7.58;100.00
35553;BME280;21656;46.054;13.614;2023-02-21T08:45:29;101254.88;;;7.68;100.00
35553;BME280;21656;46.054;13.614;2023-02-21T08:47:55;101259.97;;;7.72;100.00
35553;BME280;21656;46.054;13.614;2023-02-21T08:50:22;101260.72;;;7.74;100.00
35553;BME280;21656;46.054;13.614;2023-02-21T08:52:48;101265.78;;;7.80;100.00
35553;BME280;21656;46.054;13.614;2023-02-21T08:55:14;101261.69;;;7.89;100.00
35553;BME280;21656;46.054;13.614;2023-02-21T08:57:40;101269.41;;;7.95;100.00
35553;BME280;21656;46.054;13.614;2023-02-21T09:00:06;101265.00;;;7.94;100.00
35553;BME280;21656;46.054;13.614;2023-02-21T09:02:34;101254.00;;;7.99;100.00
35553;BME280;21656;46.054;13.614;2023-02-21T09:05:00;101259.78;;;8.07;100.00
35553;BME280;21656;46.054;13.614;2023-02-21T09:07:25;101261.34;;;8.11;100.00
35553;BME280;21656;46.054;13.614;2023-02-21T09:09:52;101261.97;;;8.16;100.00
35553;BME280;21656;46.054;13.614;2023-02-21T09:12:17;101259.88;;;8.21;100.00
35553;BME280;21656;46.054;13.614;2023-02-21T09:14:43;101266.81;;;8.25;100.00
35553;BME280;21656;46.054;13.614;2023-02-21T09:17:09;101254.31;;;8.24;100.00
35553;BME280;21656;46.054;13.614;2023-02-21T09:19:35;101250.53;;;8.29;100.00
35553;BME280;21656;46.054;13.614;2023-02-21T09:22:00;101249.38;;;8.33;100.00
35553;BME280;21656;46.054;13.614;2023-02-21T09:24:27;101251.97;;;8.34;100.00
35553;BME280;21656;46.054;13.614;2023-02-21T09:26:54;101258.13;;;8.36;100.00
35553;BME280;21656;46.054;13.614;2023-02-21T09:29:23;101252.78;;;8.36;100.00
35553;BME280;21656;46.054;13.614;2023-02-21T09:31:48;101246.34;;;8.39;100.00
35553;BME280;21656;46.054;13.614;2023-02-21T09:34:14;101250.78;;;8.40;100.00
35553;BME280;21656;46.054;13.614;2023-02-21T09:36:39;101250.44;;;8.46;100.00
35553;BME280;21656;46.054;13.614;2023-02-21T09:39:05;101241.34;;;8.49;100.00
35553;BME280;21656;46.054;13.614;2023-02-21T09:41:31;101244.72;;;8.52;100.00
35553;BME280;21656;46.054;13.614;2023-02-21T09:43:57;101242.81;;;8.54;100.00
35553;BME280;21656;46.054;13.614;2023-02-21T09:49:00;101236.47;;;8.55;100.00
35553;BME280;21656;46.054;13.614;2023-02-21T09:51:26;101242.63;;;8.57;100.00
35553;BME280;21656;46.054;13.614;2023-02-21T09:53:53;101236.47;;;8.55;100.00
35553;BME280;21656;46.054;13.614;2023-02-21T09:56:26;101235.59;;;8.55;100.00
35553;BME280;21656;46.054;13.614;2023-02-21T09:58:52;101248.25;;;8.53;100.00
35553;BME280;21656;46.054;13.614;2023-02-21T10:01:21;101236.66;;;8.52;100.00
35553;BME280;21656;46.054;13.614;2023-02-21T10:07:13;101236.91;;;8.63;100.00
35553;BME280;21656;46.054;13.614;2023-02-21T10:11:53;101237.38;;;8.70;100.00
35553;BME280;21656;46.054;13.614;2023-02-21T10:14:39;101235.38;;;8.74;100.00
35553;BME280;21656;46.054;13.614;2023-02-21T10:20:12;101233.28;;;8.79;100.00
35553;BME280;21656;46.054;13.614;2023-02-21T10:22:39;101233.09;;;8.82;100.00
35553;BME280;21656;46.054;13.614;2023-02-21T10:25:27;101228.31;;;8.87;100.00
35553;BME280;21656;46.054;13.614;2023-02-21T10:27:50;101233.31;;;8.93;100.00
35553;BME280;21656;46.054;13.614;2023-02-21T10:30:28;101229.47;;;8.97;100.00
35553;BME280;21656;46.054;13.614;2023-02-21T10:32:54;101227.47;;;9.01;100.00
35553;BME280;21656;46.054;13.614;2023-02-21T10:35:20;101225.28;;;9.07;100.00
35553;BME280;21656;46.054;13.614;2023-02-21T10:37:46;101223.34;;;9.09;100.00
35553;BME280;21656;46.054;13.614;2023-02-21T10:42:48;101215.88;;;9.15;100.00
35553;BME280;21656;46.054;13.614;2023-02-21T10:45:15;101218.44;;;9.16;100.00
35553;BME280;21656;46.054;13.614;2023-02-21T10:50:35;101214.72;;;9.19;100.00
35553;BME280;21656;46.054;13.614;2023-02-21T10:53:00;101207.22;;;9.24;100.00
35553;BME280;21656;46.054;13.614;2023-02-21T10:55:26;101205.22;;;9.27;100.00
35553;BME280;21656;46.054;13.614;2023-02-21T10:57:55;101208.56;;;9.31;100.00
35553;BME280;21656;46.054;13.614;2023-02-21T11:00:31;101199.56;;;9.32;100.00
35553;BME280;21656;46.054;13.614;2023-02-21T11:03:02;101203.75;;;9.36;100.00
35553;BME280;21656;46.054;13.614;2023-02-21T11:05:28;101193.88;;;9.37;100.00
35553;BME280;21656;46.054;13.614;2023-02-21T11:07:57;101190.44;;;9.35;100.00
35553;BME280;21656;46.054;13.614;2023-02-21T11:10:25;101194.94;;;9.34;100.00
35553;BME280;21656;46.054;13.614;2023-02-21T11:13:03;101189.25;;;9.39;100.00
35553;BME280;21656;46.054;13.614;2023-02-21T11:15:29;101183.53;;;9.45;100.00
35553;BME280;21656;46.054;13.614;2023-02-21T11:18:16;101181.28;;;9.51;100.00
35553;BME280;21656;46.054;13.614;2023-02-21T11:20:40;101179.44;;;9.52;100.00
35553;BME280;21656;46.054;13.614;2023-02-21T11:23:16;101175.13;;;9.49;100.00
35553;BME280;21656;46.054;13.614;2023-02-21T11:25:42;101165.53;;;9.60;100.00
35553;BME280;21656;46.054;13.614;2023-02-21T11:33:22;101164.53;;;9.75;100.00
35553;BME280;21656;46.054;13.614;2023-02-21T11:35:49;101154.22;;;9.82;100.00
35553;BME280;21656;46.054;13.614;2023-02-21T11:38:35;101154.00;;;9.85;100.00
35553;BME280;21656;46.054;13.614;2023-02-21T11:41:02;101151.59;;;9.94;100.00
35553;BME280;21656;46.054;13.614;2023-02-21T11:43:29;101156.38;;;10.04;100.00
35553;BME280;21656;46.054;13.614;2023-02-21T11:46:03;101147.88;;;10.10;100.00
35553;BME280;21656;46.054;13.614;2023-02-21T11:48:32;101142.31;;;10.13;100.00
35553;BME280;21656;46.054;13.614;2023-02-21T11:50:59;101136.03;;;10.12;100.00
35553;BME280;21656;46.054;13.614;2023-02-21T11:53:31;101136.03;;;10.12;100.00
35553;BME280;21656;46.054;13.614;2023-02-21T11:56:23;101130.66;;;10.12;100.00
35553;BME280;21656;46.054;13.614;2023-02-21T11:58:57;101129.16;;;10.08;100.00
35553;BME280;21656;46.054;13.614;2023-02-21T12:01:27;101119.16;;;10.10;100.00
35553;BME280;21656;46.054;13.614;2023-02-21T12:06:34;101111.28;;;10.20;100.00
35553;BME280;21656;46.054;13.614;2023-02-21T12:21:47;101076.94;;;10.51;100.00
35553;BME280;21656;46.054;13.614;2023-02-21T12:26:48;101079.09;;;10.58;100.00
35553;BME280;21656;46.054;13.614;2023-02-21T12:47:01;101058.75;;;11.17;100.00
35553;BME280;21656;46.054;13.614;2023-02-21T12:49:30;101056.91;;;11.17;100.00
35553;BME280;21656;46.054;13.614;2023-02-21T12:51:58;101054.72;;;11.22;100.00
35553;BME280;21656;46.054;13.614;2023-02-21T12:56:56;101044.19;;;11.19;100.00
35553;BME280;21656;46.054;13.614;2023-02-21T12:59:30;101039.88;;;11.17;100.00
35553;BME280;21656;46.054;13.614;2023-02-21T13:01:58;101036.81;;;11.21;100.00
35553;BME280;21656;46.054;13.614;2023-02-21T13:07:01;101036.41;;;11.15;100.00
35553;BME280;21656;46.054;13.614;2023-02-21T13:12:34;101027.38;;;11.03;100.00
35553;BME280;21656;46.054;13.614;2023-02-21T13:15:11;101022.66;;;11.06;100.00
35553;BME280;21656;46.054;13.614;2023-02-21T13:17:38;101020.81;;;11.07;100.00
35553;BME280;21656;46.054;13.614;2023-02-21T13:20:05;101020.16;;;11.03;100.00
35553;BME280;21656;46.054;13.614;2023-02-21T13:25:37;101009.94;;;10.96;100.00
35553;BME280;21656;46.054;13.614;2023-02-21T13:28:19;101013.63;;;10.95;100.00
35553;BME280;21656;46.054;13.614;2023-02-21T13:30:49;101008.31;;;10.93;100.00
35553;BME280;21656;46.054;13.614;2023-02-21T13:35:59;101009.19;;;10.94;100.00
35553;BME280;21656;46.054;13.614;2023-02-21T13:38:25;101006.28;;;10.97;100.00
35553;BME280;21656;46.054;13.614;2023-02-21T13:40:52;101002.84;;;10.95;100.00
35553;BME280;21656;46.054;13.614;2023-02-21T13:43:25;101001.84;;;10.96;100.00
35553;BME280;21656;46.054;13.614;2023-02-21T13:45:53;100999.91;;;10.98;100.00
35553;BME280;21656;46.054;13.614;2023-02-21T13:50:45;100997.22;;;10.98;100.00
35553;BME280;21656;46.054;13.614;2023-02-21T13:53:15;100994.97;;;10.92;100.00
35553;BME280;21656;46.054;13.614;2023-02-21T13:56:10;100988.38;;;10.96;100.00
35553;BME280;21656;46.054;13.614;2023-02-21T13:58:31;100994.84;;;10.93;100.00
35553;BME280;21656;46.054;13.614;2023-02-21T14:01:11;100983.13;;;10.94;100.00
35553;BME280;21656;46.054;13.614;2023-02-21T14:03:37;100983.75;;;10.98;100.00
35553;BME280;21656;46.054;13.614;2023-02-21T14:08:35;100978.88;;;11.03;100.00
35553;BME280;21656;46.054;13.614;2023-02-21T14:21:13;100980.28;;;10.96;100.00
35553;BME280;21656;46.054;13.614;2023-02-21T14:23:49;100982.66;;;11.00;100.00
35553;BME280;21656;46.054;13.614;2023-02-21T14:29:01;100981.81;;;11.00;100.00
35553;BME280;21656;46.054;13.614;2023-02-21T14:32:35;100981.81;;;11.00;100.00
35553;BME280;21656;46.054;13.614;2023-02-21T14:37:24;100983.31;;;11.04;100.00
35553;BME280;21656;46.054;13.614;2023-02-21T14:39:51;100975.66;;;10.98;100.00
35553;BME280;21656;46.054;13.614;2023-02-21T14:47:25;100967.47;;;10.99;100.00
35553;BME280;21656;46.054;13.614;2023-02-21T14:49:59;100970.41;;;10.96;100.00
35553;BME280;21656;46.054;13.614;2023-02-21T14:55:00;100967.34;;;11.01;100.00
35553;BME280;21656;46.054;13.614;2023-02-21T15:00:06;100963.59;;;10.91;100.00
35553;BME280;21656;46.054;13.614;2023-02-21T15:05:16;100962.22;;;10.85;100.00
35553;BME280;21656;46.054;13.614;2023-02-21T15:15:18;100951.69;;;10.82;100.00
35553;BME280;21656;46.054;13.614;2023-02-21T15:17:44;100956.22;;;10.81;100.00
35553;BME280;21656;46.054;13.614;2023-02-21T15:20:19;100957.16;;;10.80;100.00
35553;BME280;21656;46.054;13.614;2023-02-21T15:22:44;100954.59;;;10.79;100.00
35553;BME280;21656;46.054;13.614;2023-02-21T15:27:51;100947.38;;;10.79;100.00